createdAt,value
2022-09-22T00:00:00.406Z,97.41
2022-09-22T00:01:00.392Z,97.31
2022-09-22T00:02:00.339Z,97.50
2022-09-22T00:03:00.155Z,97.69
2022-09-22T00:04:00.187Z,97.41
2022-09-22T00:04:59.988Z,97.41
2022-09-22T00:05:59.940Z,97.50
2022-09-22T00:06:59.843Z,97.50
2022-09-22T00:07:59.742Z,97.41
2022-09-22T00:08:59.698Z,97.50
2022-09-22T00:09:59.573Z,97.50
2022-09-22T00:10:59.491Z,97.50
2022-09-22T00:11:59.408Z,97.41
2022-09-22T00:12:59.325Z,97.60
2022-09-22T00:13:59.240Z,97.50
2022-09-22T00:14:59.157Z,97.60
2022-09-22T00:15:59.129Z,97.88
2022-09-22T00:16:58.992Z,98.16
2022-09-22T00:17:58.959Z,97.69
2022-09-22T00:18:58.829Z,97.60
2022-09-22T00:19:58.740Z,97.31
2022-09-22T00:20:58.659Z,96.93
2022-09-22T00:21:58.577Z,97.02
2022-09-22T00:22:58.510Z,97.02
2022-09-22T00:23:58.407Z,97.02
2022-09-22T00:24:58.324Z,97.02
2022-09-22T00:25:58.242Z,97.31
2022-09-22T00:26:58.162Z,97.31
2022-09-22T00:27:58.223Z,97.31
2022-09-22T00:28:57.993Z,96.93
2022-09-22T00:29:57.909Z,97.31
2022-09-22T00:30:57.830Z,97.22
2022-09-22T00:31:57.858Z,96.93
2022-09-22T00:32:57.661Z,97.12
2022-09-22T00:33:57.575Z,96.93
2022-09-22T00:34:57.494Z,96.93
2022-09-22T00:35:57.409Z,97.69
2022-09-22T00:36:57.327Z,97.31
2022-09-22T00:37:57.242Z,97.41
2022-09-22T00:38:57.180Z,97.50
2022-09-22T00:39:57.077Z,97.60
2022-09-22T00:40:56.997Z,97.88
2022-09-22T00:41:56.911Z,98.07
2022-09-22T00:42:56.829Z,97.88
2022-09-22T00:43:56.753Z,97.88
2022-09-22T00:44:56.663Z,97.69
2022-09-22T00:45:56.578Z,97.60
2022-09-22T00:46:56.592Z,97.69
2022-09-22T00:47:56.415Z,97.60
2022-09-22T00:48:56.345Z,97.31
2022-09-22T00:49:56.242Z,97.41
2022-09-22T00:50:56.163Z,97.02
2022-09-22T00:51:56.079Z,97.31
2022-09-22T00:52:55.995Z,97.41
2022-09-22T00:53:56.061Z,97.22
2022-09-22T00:54:55.848Z,97.31
2022-09-22T00:55:55.744Z,96.93
2022-09-22T00:56:55.661Z,97.02
2022-09-22T00:57:55.580Z,97.02
2022-09-22T00:58:55.497Z,97.22
2022-09-22T00:59:55.411Z,97.02
2022-09-22T01:00:55.395Z,97.31
2022-09-22T01:01:55.301Z,96.64
2022-09-22T01:02:55.166Z,96.83
2022-09-22T01:03:55.079Z,96.36
2022-09-22T01:04:54.995Z,96.36
2022-09-22T01:05:54.918Z,96.08
2022-09-22T01:06:54.830Z,96.17
2022-09-22T01:07:54.745Z,96.26
2022-09-22T01:08:54.667Z,96.45
2022-09-22T01:09:54.582Z,96.36
2022-09-22T01:10:54.518Z,96.83
2022-09-22T01:11:54.412Z,96.74
2022-09-22T01:12:54.332Z,97.31
2022-09-22T01:13:54.249Z,96.55
2022-09-22T01:14:54.165Z,96.64
2022-09-22T01:15:54.176Z,96.64
2022-09-22T01:16:53.997Z,96.83
2022-09-22T01:17:53.914Z,96.17
2022-09-22T01:18:53.834Z,96.45
2022-09-22T01:19:53.748Z,96.26
2022-09-22T01:20:53.666Z,96.45
2022-09-22T01:21:53.579Z,96.36
2022-09-22T01:22:53.503Z,96.26
2022-09-22T01:23:53.415Z,96.26
2022-09-22T01:24:53.333Z,96.26
2022-09-22T01:25:53.248Z,95.70
2022-09-22T01:26:53.336Z,95.51
2022-09-22T01:27:53.080Z,96.17
2022-09-22T01:28:53.000Z,95.98
2022-09-22T01:29:52.915Z,95.70
2022-09-22T01:30:52.879Z,95.51
2022-09-22T01:31:52.933Z,96.08
2022-09-22T01:32:52.667Z,95.51
2022-09-22T01:33:52.580Z,95.79
2022-09-22T01:34:52.498Z,96.08
2022-09-22T01:35:52.413Z,95.51
2022-09-22T01:36:52.480Z,95.41
2022-09-22T01:37:52.250Z,95.22
2022-09-22T01:38:52.164Z,95.79
2022-09-22T01:39:52.082Z,95.31
2022-09-22T01:40:51.999Z,95.79
2022-09-22T01:41:52.018Z,95.79
2022-09-22T01:42:51.852Z,95.51
2022-09-22T01:43:51.748Z,95.98
2022-09-22T01:44:51.662Z,95.89
2022-09-22T01:45:51.613Z,95.89
2022-09-22T01:46:51.542Z,96.26
2022-09-22T01:47:51.411Z,96.08
2022-09-22T01:48:51.333Z,96.36
2022-09-22T01:49:51.246Z,96.36
2022-09-22T01:50:51.163Z,96.36
2022-09-22T01:51:51.078Z,96.26
2022-09-22T01:52:50.996Z,95.89
2022-09-22T01:53:50.911Z,95.89
2022-09-22T01:54:50.830Z,95.70
2022-09-22T01:55:50.744Z,95.31
2022-09-22T01:56:50.663Z,95.60
2022-09-22T01:57:50.580Z,95.79
2022-09-22T01:58:50.515Z,95.65
2022-09-22T01:59:50.409Z,95.12
2022-09-22T02:00:50.328Z,95.03
2022-09-22T02:01:50.374Z,95.12
2022-09-22T02:02:50.319Z,95.12
2022-09-22T02:03:50.078Z,95.31
2022-09-22T02:04:49.996Z,95.51
2022-09-22T02:05:49.910Z,95.07
2022-09-22T02:06:49.827Z,95.27
2022-09-22T02:07:49.742Z,94.98
2022-09-22T02:08:49.658Z,94.89
2022-09-22T02:09:49.575Z,94.89
2022-09-22T02:10:49.491Z,95.27
2022-09-22T02:11:49.412Z,94.98
2022-09-22T02:12:49.324Z,94.84
2022-09-22T02:13:49.239Z,95.07
2022-09-22T02:14:49.176Z,95.17
2022-09-22T02:15:49.106Z,95.17
2022-09-22T02:16:48.990Z,95.27
2022-09-22T02:17:49.058Z,95.17
2022-09-22T02:18:48.822Z,95.27
2022-09-22T02:19:48.739Z,95.17
2022-09-22T02:20:48.654Z,95.17
2022-09-22T02:21:48.572Z,94.79
2022-09-22T02:22:48.489Z,94.84
2022-09-22T02:23:48.405Z,94.51
2022-09-22T02:24:48.318Z,94.74
2022-09-22T02:25:48.239Z,94.74
2022-09-22T02:26:48.152Z,94.74
2022-09-22T02:27:48.070Z,94.74
2022-09-22T02:28:47.985Z,95.31
2022-09-22T02:29:48.152Z,95.31
2022-09-22T02:31:10.450Z,95.31
2022-09-22T02:31:47.798Z,95.31
2022-09-22T02:32:47.652Z,95.60
2022-09-22T02:33:47.567Z,95.60
2022-09-22T02:34:47.484Z,95.70
2022-09-22T02:35:47.400Z,95.89
2022-09-22T02:36:47.315Z,95.89
2022-09-22T02:37:47.235Z,95.51
2022-09-22T02:38:47.148Z,95.60
2022-09-22T02:39:47.067Z,95.84
2022-09-22T02:40:47.100Z,95.74
2022-09-22T02:41:46.900Z,95.07
2022-09-22T02:42:46.814Z,95.55
2022-09-22T02:43:46.730Z,95.36
2022-09-22T02:44:46.645Z,94.79
2022-09-22T02:45:46.563Z,94.70
2022-09-22T02:46:46.502Z,94.70
2022-09-22T02:47:46.397Z,94.70
2022-09-22T02:48:46.311Z,94.32
2022-09-22T02:49:46.227Z,94.13
2022-09-22T02:50:46.148Z,94.42
2022-09-22T02:51:46.065Z,94.42
2022-09-22T02:52:45.975Z,94.13
2022-09-22T02:53:45.894Z,94.42
2022-09-22T02:54:45.911Z,94.42
2022-09-22T02:55:45.724Z,94.51
2022-09-22T02:56:45.644Z,94.03
2022-09-22T02:57:45.560Z,94.03
2022-09-22T02:58:45.480Z,94.23
2022-09-22T02:59:45.391Z,94.32
2022-09-22T03:00:45.311Z,94.03
2022-09-22T03:01:45.413Z,94.32
2022-09-22T03:02:45.161Z,94.23
2022-09-22T03:03:45.056Z,94.23
2022-09-22T03:04:45.014Z,94.03
2022-09-22T03:05:44.890Z,94.42
2022-09-22T03:06:44.808Z,94.23
2022-09-22T03:07:44.723Z,94.42
2022-09-22T03:08:44.638Z,94.70
2022-09-22T03:09:44.556Z,94.23
2022-09-22T03:10:44.469Z,94.03
2022-09-22T03:11:44.391Z,94.32
2022-09-22T03:13:09.107Z,94.42
2022-09-22T03:13:44.220Z,94.23
2022-09-22T03:14:44.140Z,93.84
2022-09-22T03:15:44.171Z,93.65
2022-09-22T03:16:43.969Z,93.56
2022-09-22T03:17:43.885Z,93.27
2022-09-22T03:18:43.821Z,93.27
2022-09-22T03:19:43.868Z,93.18
2022-09-22T03:20:43.631Z,93.27
2022-09-22T03:21:43.550Z,93.37
2022-09-22T03:22:43.468Z,93.08
2022-09-22T03:23:43.383Z,93.37
2022-09-22T03:24:43.297Z,93.27
2022-09-22T03:25:43.316Z,93.65
2022-09-22T03:26:43.134Z,93.37
2022-09-22T03:27:43.051Z,93.46
2022-09-22T03:28:42.963Z,93.65
2022-09-22T03:29:42.881Z,93.84
2022-09-22T03:30:42.861Z,93.65
2022-09-22T03:31:42.714Z,93.84
2022-09-22T03:32:42.628Z,93.65
2022-09-22T03:33:42.547Z,93.65
2022-09-22T03:34:42.482Z,93.27
2022-09-22T03:35:42.379Z,93.56
2022-09-22T03:36:42.297Z,93.75
2022-09-22T03:37:42.213Z,94.03
2022-09-22T03:38:42.127Z,93.56
2022-09-22T03:39:42.045Z,94.03
2022-09-22T03:40:41.984Z,93.84
2022-09-22T03:41:41.877Z,94.23
2022-09-22T03:42:41.791Z,94.32
2022-09-22T03:43:41.709Z,94.51
2022-09-22T03:44:41.623Z,93.75
2022-09-22T03:45:41.580Z,93.65
2022-09-22T03:46:41.457Z,93.65
2022-09-22T03:47:41.375Z,93.84
2022-09-22T03:48:44.997Z,93.94
2022-09-22T03:49:41.207Z,93.46
2022-09-22T03:50:41.141Z,93.65
2022-09-22T03:51:41.046Z,93.56
2022-09-22T03:52:40.955Z,93.56
2022-09-22T03:53:40.874Z,93.27
2022-09-22T03:54:40.787Z,93.08
2022-09-22T03:55:40.704Z,93.56
2022-09-22T03:56:40.621Z,93.84
2022-09-22T03:57:40.539Z,93.75
2022-09-22T03:58:40.453Z,93.65
2022-09-22T03:59:40.370Z,93.56
2022-09-22T04:00:40.282Z,93.84
2022-09-22T04:01:40.333Z,93.94
2022-09-22T04:02:40.265Z,93.46
2022-09-22T04:03:40.035Z,93.08
2022-09-22T04:04:39.947Z,93.37
2022-09-22T04:05:39.867Z,93.18
2022-09-22T04:06:39.857Z,93.18
2022-09-22T04:07:39.701Z,93.08
2022-09-22T04:08:39.619Z,93.27
2022-09-22T04:09:39.532Z,92.90
2022-09-22T04:10:39.547Z,92.42
2022-09-22T04:11:39.364Z,91.94
2022-09-22T04:12:39.279Z,92.71
2022-09-22T04:13:44.005Z,92.04
2022-09-22T04:14:39.113Z,91.94
2022-09-22T04:15:39.029Z,92.14
2022-09-22T04:16:39.240Z,91.94
2022-09-22T04:17:38.863Z,91.85
2022-09-22T04:18:38.780Z,91.56
2022-09-22T04:19:38.696Z,92.23
2022-09-22T04:20:38.614Z,91.94
2022-09-22T04:21:38.527Z,92.33
2022-09-22T04:22:38.464Z,92.71
2022-09-22T04:23:38.362Z,92.33
2022-09-22T04:24:38.280Z,92.14
2022-09-22T04:25:38.199Z,92.04
2022-09-22T04:26:38.358Z,92.71
2022-09-22T04:27:38.026Z,92.52
2022-09-22T04:28:37.942Z,92.90
2022-09-22T04:29:37.857Z,92.99
2022-09-22T04:30:37.850Z,92.90
2022-09-22T04:31:37.691Z,92.71
2022-09-22T04:32:37.606Z,92.14
2022-09-22T04:33:37.522Z,91.75
2022-09-22T04:34:37.437Z,91.75
2022-09-22T04:35:37.354Z,90.90
2022-09-22T04:36:37.271Z,91.47
2022-09-22T04:37:37.189Z,91.00
2022-09-22T04:38:37.121Z,91.09
2022-09-22T04:39:37.022Z,90.90
2022-09-22T04:40:36.967Z,90.90
2022-09-22T04:41:36.851Z,90.90
2022-09-22T04:42:36.767Z,90.71
2022-09-22T04:43:36.683Z,90.71
2022-09-22T04:44:36.605Z,90.71
2022-09-22T04:45:39.697Z,91.00
2022-09-22T04:46:36.433Z,91.38
2022-09-22T04:47:36.348Z,91.14
2022-09-22T04:48:36.263Z,91.19
2022-09-22T04:49:36.180Z,91.00
2022-09-22T04:50:36.097Z,91.47
2022-09-22T04:51:36.013Z,91.19
2022-09-22T04:52:35.930Z,90.67
2022-09-22T04:53:35.846Z,90.62
2022-09-22T04:54:35.776Z,90.81
2022-09-22T04:55:35.680Z,90.81
2022-09-22T04:56:35.593Z,90.90
2022-09-22T04:57:35.509Z,90.90
2022-09-22T04:58:35.425Z,90.33
2022-09-22T04:59:35.342Z,90.43
2022-09-22T05:00:35.257Z,90.52
2022-09-22T05:01:35.251Z,90.14
2022-09-22T05:02:35.094Z,90.24
2022-09-22T05:03:35.046Z,89.76
2022-09-22T05:04:34.923Z,89.67
2022-09-22T05:05:34.841Z,89.95
2022-09-22T05:06:34.753Z,89.95
2022-09-22T05:07:34.670Z,90.62
2022-09-22T05:08:34.596Z,90.52
2022-09-22T05:09:34.514Z,90.33
2022-09-22T05:10:34.440Z,90.33
2022-09-22T05:11:34.339Z,90.43
2022-09-22T05:12:34.253Z,90.52
2022-09-22T05:13:34.169Z,90.14
2022-09-22T05:14:34.084Z,90.14
2022-09-22T05:15:34.008Z,90.52
2022-09-22T05:16:34.140Z,90.71
2022-09-22T05:17:33.836Z,90.52
2022-09-22T05:18:33.749Z,90.52
2022-09-22T05:19:33.666Z,90.24
2022-09-22T05:20:33.582Z,90.33
2022-09-22T05:21:33.498Z,90.14
2022-09-22T05:22:37.700Z,90.62
2022-09-22T05:23:33.330Z,90.33
2022-09-22T05:24:33.245Z,89.95
2022-09-22T05:25:33.162Z,90.14
2022-09-22T05:26:33.096Z,90.14
2022-09-22T05:27:32.995Z,89.95
2022-09-22T05:28:32.911Z,89.86
2022-09-22T05:29:32.828Z,89.86
2022-09-22T05:30:32.741Z,90.10
2022-09-22T05:31:32.702Z,90.33
2022-09-22T05:32:32.571Z,90.33
2022-09-22T05:33:32.490Z,89.86
2022-09-22T05:34:32.405Z,90.10
2022-09-22T05:35:36.670Z,90.05
2022-09-22T05:36:32.235Z,89.95
2022-09-22T05:37:32.155Z,89.62
2022-09-22T05:38:32.071Z,90.19
2022-09-22T05:39:31.986Z,90.00
2022-09-22T05:40:31.925Z,90.29
2022-09-22T05:41:31.821Z,89.72
2022-09-22T05:42:31.751Z,89.91
2022-09-22T05:43:31.650Z,89.91
2022-09-22T05:44:31.565Z,89.25
2022-09-22T05:45:31.579Z,89.20
2022-09-22T05:46:31.401Z,89.00
2022-09-22T05:47:31.315Z,88.43
2022-09-22T05:48:31.697Z,88.53
2022-09-22T05:49:31.147Z,88.24
2022-09-22T05:50:31.064Z,88.62
2022-09-22T05:51:31.078Z,88.53
2022-09-22T05:52:30.894Z,88.62
2022-09-22T05:53:30.810Z,88.53
2022-09-22T05:54:30.731Z,88.06
2022-09-22T05:55:30.791Z,88.53
2022-09-22T05:56:30.558Z,88.24
2022-09-22T05:57:30.475Z,87.96
2022-09-22T05:58:30.413Z,88.24
2022-09-22T05:59:30.304Z,88.62
2022-09-22T06:00:30.271Z,88.24
2022-09-22T06:01:30.176Z,88.15
2022-09-22T06:02:30.097Z,87.87
2022-09-22T06:03:29.972Z,87.96
2022-09-22T06:04:29.888Z,88.15
2022-09-22T06:05:29.803Z,88.06
2022-09-22T06:06:29.720Z,88.15
2022-09-22T06:07:29.636Z,87.87
2022-09-22T06:08:29.558Z,87.49
2022-09-22T06:09:29.469Z,88.06
2022-09-22T06:10:29.383Z,88.06
2022-09-22T06:11:29.302Z,87.68
2022-09-22T06:12:29.217Z,87.39
2022-09-22T06:13:29.134Z,87.58
2022-09-22T06:14:29.067Z,87.77
2022-09-22T06:15:28.965Z,87.58
2022-09-22T06:16:28.986Z,87.43
2022-09-22T06:17:28.797Z,87.24
2022-09-22T06:18:28.714Z,87.53
2022-09-22T06:19:28.631Z,87.62
2022-09-22T06:20:28.546Z,87.72
2022-09-22T06:21:28.464Z,87.62
2022-09-22T06:22:28.378Z,87.62
2022-09-22T06:23:28.298Z,87.53
2022-09-22T06:24:28.210Z,87.62
2022-09-22T06:25:28.127Z,87.72
2022-09-22T06:26:28.046Z,87.62
2022-09-22T06:27:27.961Z,87.72
2022-09-22T06:28:27.878Z,87.62
2022-09-22T06:29:27.794Z,87.34
2022-09-22T06:30:27.728Z,87.53
2022-09-22T06:31:27.678Z,87.62
2022-09-22T06:32:27.565Z,88.20
2022-09-22T06:33:27.462Z,88.29
2022-09-22T06:34:27.386Z,87.72
2022-09-22T06:35:27.292Z,87.72
2022-09-22T06:36:27.212Z,88.10
2022-09-22T06:37:27.129Z,88.10
2022-09-22T06:38:27.047Z,87.62
2022-09-22T06:39:27.160Z,88.01
2022-09-22T06:40:26.973Z,88.20
2022-09-22T06:41:26.799Z,88.20
2022-09-22T06:42:26.712Z,88.20
2022-09-22T06:43:26.629Z,88.10
2022-09-22T06:44:26.551Z,88.29
2022-09-22T06:45:26.525Z,88.24
2022-09-22T06:46:26.403Z,87.67
2022-09-22T06:47:26.296Z,87.76
2022-09-22T06:48:26.215Z,87.76
2022-09-22T06:49:26.130Z,87.76
2022-09-22T06:50:28.822Z,88.05
2022-09-22T06:51:25.967Z,87.57
2022-09-22T06:52:25.883Z,87.67
2022-09-22T06:53:27.445Z,87.67
2022-09-22T06:54:25.899Z,87.57
2022-09-22T06:55:25.634Z,88.24
2022-09-22T06:56:25.550Z,88.15
2022-09-22T06:57:25.469Z,88.05
2022-09-22T06:58:25.386Z,87.90
2022-09-22T06:59:25.301Z,87.62
2022-09-22T07:00:25.310Z,88.38
2022-09-22T07:01:25.227Z,88.09
2022-09-22T07:02:25.384Z,88.67
2022-09-22T07:03:24.971Z,88.57
2022-09-22T07:04:24.893Z,89.04
2022-09-22T07:05:24.808Z,89.52
2022-09-22T07:06:24.727Z,89.23
2022-09-22T07:07:24.641Z,89.80
2022-09-22T07:08:24.563Z,90.09
2022-09-22T07:09:24.481Z,90.61
2022-09-22T07:10:24.494Z,90.70
2022-09-22T07:11:24.315Z,90.42
2022-09-22T07:12:24.233Z,91.94
2022-09-22T07:13:24.149Z,92.32
2022-09-22T07:14:24.070Z,93.08
2022-09-22T07:15:23.988Z,93.46
2022-09-22T07:16:23.966Z,94.08
2022-09-22T07:17:23.823Z,96.08
2022-09-22T07:18:23.764Z,96.08
2022-09-22T07:19:23.667Z,96.55
2022-09-22T07:20:23.628Z,97.03
2022-09-22T07:21:23.497Z,98.17
2022-09-22T07:22:23.416Z,98.46
2022-09-22T07:23:23.333Z,98.55
2022-09-22T07:24:23.252Z,99.31
2022-09-22T07:25:23.174Z,99.99
2022-09-22T07:26:23.093Z,99.99
2022-09-22T07:27:23.007Z,99.99
2022-09-22T07:28:22.939Z,99.99
2022-09-22T07:29:22.848Z,99.99
2022-09-22T07:30:22.866Z,99.99
2022-09-22T07:31:27.752Z,99.99
2022-09-22T07:32:22.606Z,99.99
2022-09-22T07:33:22.536Z,99.99
2022-09-22T07:34:22.475Z,99.99
2022-09-22T07:35:22.360Z,99.99
2022-09-22T07:36:22.280Z,99.99
2022-09-22T07:37:22.198Z,99.99
2022-09-22T07:38:22.117Z,99.99
2022-09-22T07:39:22.037Z,99.99
2022-09-22T07:40:22.052Z,99.99
2022-09-22T07:41:21.878Z,99.99
2022-09-22T07:42:21.796Z,99.99
2022-09-22T07:43:21.715Z,99.99
2022-09-22T07:44:21.636Z,99.99
2022-09-22T07:45:21.554Z,99.99
2022-09-22T07:46:21.506Z,99.99
2022-09-22T07:47:21.394Z,99.99
2022-09-22T07:48:21.313Z,99.99
2022-09-22T07:49:21.233Z,99.99
2022-09-22T07:50:21.343Z,99.99
2022-09-22T07:51:21.078Z,99.99
2022-09-22T07:52:20.994Z,99.99
2022-09-22T07:53:20.912Z,99.99
2022-09-22T07:54:20.833Z,99.99
2022-09-22T07:55:20.851Z,99.99
2022-09-22T07:56:20.673Z,99.99
2022-09-22T07:57:20.594Z,99.99
2022-09-22T07:58:20.514Z,99.99
2022-09-22T07:59:20.433Z,99.99
2022-09-22T08:00:20.354Z,99.99
2022-09-22T08:01:20.284Z,99.99
2022-09-22T08:02:20.263Z,99.99
2022-09-22T08:03:20.113Z,99.99
2022-09-22T08:04:20.033Z,99.99
2022-09-22T08:05:19.956Z,99.99
2022-09-22T08:06:20.054Z,99.99
2022-09-22T08:07:19.793Z,99.99
2022-09-22T08:08:19.715Z,99.99
2022-09-22T08:09:19.633Z,99.99
2022-09-22T08:10:19.554Z,99.99
2022-09-22T08:11:19.475Z,99.99
2022-09-22T08:12:19.394Z,99.99
2022-09-22T08:13:19.313Z,99.99
2022-09-22T08:14:19.237Z,99.99
2022-09-22T08:15:22.308Z,99.99
2022-09-22T08:16:19.208Z,99.99
2022-09-22T08:17:18.999Z,99.99
2022-09-22T08:18:18.918Z,99.99
2022-09-22T08:19:18.840Z,99.99
2022-09-22T08:20:18.766Z,99.99
2022-09-22T08:21:18.676Z,99.99
2022-09-22T08:22:18.620Z,99.99
2022-09-22T08:23:18.518Z,99.99
2022-09-22T08:24:18.443Z,99.99
2022-09-22T08:25:18.659Z,99.99
2022-09-22T08:26:18.283Z,99.99
2022-09-22T08:27:18.200Z,99.99
2022-09-22T08:28:18.124Z,99.99
2022-09-22T08:29:18.044Z,99.99
2022-09-22T08:30:17.974Z,99.99
2022-09-22T08:31:18.014Z,99.99
2022-09-22T08:32:17.806Z,99.99
2022-09-22T08:33:17.726Z,99.99
2022-09-22T08:34:17.703Z,99.99
2022-09-22T08:35:17.567Z,99.99
2022-09-22T08:36:17.489Z,99.99
2022-09-22T08:37:17.408Z,99.99
2022-09-22T08:38:17.350Z,99.99
2022-09-22T08:39:17.252Z,99.99
2022-09-22T08:40:17.273Z,99.99
2022-09-22T08:41:17.100Z,99.99
2022-09-22T08:42:17.015Z,99.99
2022-09-22T08:43:16.933Z,99.99
2022-09-22T08:44:16.856Z,99.99
2022-09-22T08:45:16.775Z,99.99
2022-09-22T08:46:16.731Z,99.99
2022-09-22T08:47:16.617Z,99.99
2022-09-22T08:48:16.543Z,99.99
2022-09-22T08:49:16.474Z,99.99
2022-09-22T08:50:16.383Z,99.99
2022-09-22T08:51:16.307Z,99.99
2022-09-22T08:52:16.226Z,99.99
2022-09-22T08:53:16.147Z,99.99
2022-09-22T08:54:16.088Z,99.85
2022-09-22T08:55:15.991Z,99.99
2022-09-22T08:56:15.913Z,99.99
2022-09-22T08:57:15.836Z,99.81
2022-09-22T08:58:15.956Z,99.52
2022-09-22T08:59:15.676Z,98.95
2022-09-22T09:06:33.370Z,99.43
2022-09-22T09:07:32.481Z,98.09
2022-09-22T09:08:32.410Z,98.14
2022-09-22T09:09:32.346Z,99.29
2022-09-22T09:10:32.249Z,98.52
2022-09-22T09:11:32.778Z,99.10
2022-09-22T09:12:34.714Z,98.71
2022-09-22T09:13:32.016Z,98.18
2022-09-22T09:14:31.938Z,98.75
2022-09-22T09:15:31.860Z,97.80
2022-09-22T09:16:34.283Z,98.57
2022-09-22T09:17:31.703Z,99.00
2022-09-22T09:18:31.626Z,99.99
2022-09-22T09:19:31.548Z,99.57
2022-09-22T09:20:31.473Z,98.90
2022-09-22T09:21:31.391Z,98.43
2022-09-22T09:22:31.315Z,98.33
2022-09-22T09:25:31.117Z,98.52
2022-09-22T09:26:31.006Z,97.66
2022-09-22T09:27:30.928Z,95.94
2022-09-22T09:28:30.852Z,95.94
2022-09-22T09:29:30.773Z,95.84
2022-09-22T09:30:30.695Z,96.13
2022-09-22T09:31:30.646Z,95.46
2022-09-22T09:32:30.740Z,94.98
2022-09-22T09:33:30.462Z,95.17
2022-09-22T09:34:30.384Z,96.80
2022-09-22T09:35:30.308Z,95.27
2022-09-22T09:36:30.231Z,95.17
2022-09-22T09:37:30.151Z,95.79
2022-09-22T09:38:30.076Z,96.37
2022-09-22T09:39:29.996Z,95.70
2022-09-22T09:40:30.100Z,94.55
2022-09-22T09:41:29.876Z,94.45
2022-09-22T09:42:29.766Z,94.26
2022-09-22T09:43:29.687Z,94.07
2022-09-22T09:44:29.611Z,94.55
2022-09-22T09:45:29.532Z,93.98
2022-09-22T09:46:29.494Z,94.45
2022-09-22T09:47:29.379Z,94.55
2022-09-22T09:48:29.301Z,93.88
2022-09-22T09:49:29.222Z,94.55
2022-09-22T09:50:29.151Z,93.79
2022-09-22T09:51:29.071Z,93.69
2022-09-22T09:52:28.991Z,93.79
2022-09-22T09:53:28.914Z,92.54
2022-09-22T09:54:28.837Z,94.65
2022-09-22T09:55:28.760Z,94.26
2022-09-22T09:56:28.685Z,93.69
2022-09-22T09:57:28.624Z,93.98
2022-09-22T09:58:28.527Z,94.84
2022-09-22T09:59:28.450Z,93.69
2022-09-22T10:00:28.376Z,94.50
2022-09-22T10:01:28.333Z,93.35
2022-09-22T10:02:28.218Z,93.83
2022-09-22T10:03:28.216Z,92.11
2022-09-22T10:04:28.067Z,93.07
2022-09-22T10:05:27.987Z,92.68
2022-09-22T10:06:27.915Z,92.11
2022-09-22T10:07:27.907Z,93.69
2022-09-22T10:08:27.758Z,93.78
2022-09-22T10:09:27.679Z,92.44
2022-09-22T10:10:27.610Z,92.30
2022-09-22T10:11:27.527Z,90.77
2022-09-22T10:12:27.448Z,90.48
2022-09-22T10:13:27.390Z,90.39
2022-09-22T10:14:27.303Z,91.05
2022-09-22T10:15:27.217Z,90.96
2022-09-22T10:16:27.143Z,90.96
2022-09-22T10:17:27.063Z,91.39
2022-09-22T10:18:26.987Z,90.91
2022-09-22T10:19:26.909Z,91.19
2022-09-22T10:20:26.923Z,90.33
2022-09-22T10:21:26.755Z,88.51
2022-09-22T10:22:26.743Z,89.47
2022-09-22T10:23:26.603Z,90.72
2022-09-22T10:24:26.528Z,88.56
2022-09-22T10:25:26.448Z,86.50
2022-09-22T10:26:26.596Z,86.60
2022-09-22T10:27:26.294Z,86.98
2022-09-22T10:28:26.221Z,86.50
2022-09-22T10:29:26.161Z,87.08
2022-09-22T10:30:26.169Z,88.08
2022-09-22T10:31:26.059Z,86.64
2022-09-22T10:32:25.953Z,85.74
2022-09-22T10:33:25.875Z,86.12
2022-09-22T10:34:25.763Z,84.78
2022-09-22T10:35:25.686Z,85.64
2022-09-22T10:36:25.610Z,87.79
2022-09-22T10:37:25.535Z,85.30
2022-09-22T10:38:25.455Z,84.91
2022-09-22T10:39:25.381Z,84.25
2022-09-22T10:40:25.410Z,82.90
2022-09-22T10:41:25.226Z,84.53
2022-09-22T10:42:25.150Z,86.83
2022-09-22T10:43:25.072Z,87.60
2022-09-22T10:44:38.425Z,85.68
2022-09-22T10:45:24.943Z,86.35
2022-09-22T10:46:24.906Z,85.39
2022-09-22T10:47:27.120Z,85.11
2022-09-22T10:48:24.697Z,84.25
2022-09-22T10:49:24.612Z,85.21
2022-09-22T10:50:24.661Z,85.58
2022-09-22T10:51:24.461Z,85.64
2022-09-22T10:53:16.878Z,84.58
2022-09-22T10:54:16.849Z,84.39
2022-09-22T10:55:16.725Z,87.21
2022-09-22T10:56:16.647Z,86.45
2022-09-22T10:57:16.569Z,85.49
2022-09-22T10:58:16.492Z,85.58
2022-09-22T10:59:16.419Z,85.63
2022-09-22T11:00:16.342Z,85.72
2022-09-22T11:01:16.350Z,86.21
2022-09-22T11:02:16.189Z,86.11
2022-09-22T11:03:16.114Z,84.86
2022-09-22T11:04:16.106Z,83.61
2022-09-22T11:05:15.964Z,84.19
2022-09-22T11:06:15.884Z,84.77
2022-09-22T11:07:15.812Z,83.23
2022-09-22T11:08:15.736Z,82.41
2022-09-22T11:09:15.661Z,83.08
2022-09-22T11:10:15.582Z,82.79
2022-09-22T11:11:15.543Z,82.51
2022-09-22T11:12:15.433Z,83.65
2022-09-22T11:13:15.356Z,82.60
2022-09-22T11:14:15.280Z,81.45
2022-09-22T11:15:15.205Z,82.54
2022-09-22T11:16:15.131Z,81.49
2022-09-22T11:17:15.073Z,80.15
2022-09-22T11:18:14.979Z,79.14
2022-09-22T11:19:14.910Z,80.30
2022-09-22T11:20:14.829Z,82.12
2022-09-22T11:21:14.754Z,80.49
2022-09-22T11:22:14.680Z,81.16
2022-09-22T11:23:14.607Z,80.16
2022-09-22T11:24:14.534Z,80.16
2022-09-22T11:25:14.455Z,80.45
2022-09-22T11:26:14.379Z,81.12
2022-09-22T11:27:14.304Z,80.55
2022-09-22T11:28:14.281Z,81.35
2022-09-22T11:29:14.157Z,80.40
2022-09-22T11:30:14.158Z,80.05
2022-09-22T11:31:14.035Z,79.96
2022-09-22T11:32:13.928Z,79.22
2022-09-22T11:33:13.872Z,79.42
2022-09-22T11:34:13.932Z,78.21
2022-09-22T11:35:57.608Z,74.63
2022-09-22T11:37:58.620Z,72.74
2022-09-22T11:38:58.543Z,69.28
2022-09-22T11:39:58.473Z,69.51
2022-09-22T11:40:58.401Z,70.01
2022-09-22T11:41:58.328Z,71.46
2022-09-22T11:43:47.225Z,71.59
2022-09-22T11:44:47.153Z,69.41
2022-09-22T11:45:47.126Z,67.61
2022-09-22T11:46:47.010Z,66.24
2022-09-22T11:48:34.588Z,66.39
2022-09-22T11:49:34.359Z,66.91
2022-09-22T11:50:34.287Z,67.39
2022-09-22T11:51:34.217Z,68.03
2022-09-22T11:52:34.150Z,69.12
2022-09-22T11:53:34.077Z,70.81
2022-09-22T11:54:34.006Z,72.41
2022-09-22T11:55:33.938Z,74.33
2022-09-22T11:56:33.867Z,74.19
2022-09-22T11:57:33.796Z,74.64
2022-09-22T11:58:33.724Z,74.64
2022-09-22T11:59:33.652Z,75.95
2022-09-22T12:00:33.581Z,77.38
2022-09-22T12:01:33.531Z,78.34
2022-09-22T12:02:33.555Z,78.72
2022-09-22T12:03:33.463Z,79.49
2022-09-22T12:04:33.328Z,78.02
2022-09-22T12:05:33.221Z,78.53
2022-09-22T12:06:33.148Z,78.25
2022-09-22T12:07:33.076Z,77.38
2022-09-22T12:08:33.005Z,75.82
2022-09-22T12:09:35.937Z,72.38
2022-09-22T12:10:32.858Z,69.44
2022-09-22T12:11:32.783Z,67.99
2022-09-22T12:12:32.713Z,70.62
2022-09-22T12:13:32.640Z,72.31
2022-09-22T12:14:32.568Z,73.31
2022-09-22T12:15:32.576Z,73.06
2022-09-22T12:16:32.425Z,71.91
2022-09-22T12:17:32.351Z,71.87
2022-09-22T12:18:32.280Z,71.93
2022-09-22T12:19:32.206Z,71.61
2022-09-22T12:20:32.195Z,73.27
2022-09-22T12:21:32.068Z,74.54
2022-09-22T12:22:31.991Z,70.86
2022-09-22T12:23:31.918Z,66.30
2022-09-22T12:24:31.850Z,65.27
2022-09-22T12:25:47.576Z,63.57
2022-09-22T12:26:31.705Z,63.50
2022-09-22T12:27:31.642Z,62.15
2022-09-22T12:28:31.568Z,62.47
2022-09-22T12:29:31.497Z,61.19
2022-09-22T12:30:31.478Z,61.77
2022-09-22T12:31:31.361Z,63.34
2022-09-22T12:32:31.292Z,64.25
2022-09-22T12:33:31.227Z,63.92
2022-09-22T12:34:31.155Z,62.79
2022-09-22T12:35:31.435Z,63.18
2022-09-22T12:36:31.041Z,63.02
2022-09-22T12:37:30.949Z,64.43
2022-09-22T12:38:30.887Z,66.23
2022-09-22T12:39:31.088Z,68.73
2022-09-22T12:40:31.402Z,69.18
2022-09-22T12:41:30.709Z,69.81
2022-09-22T12:42:31.620Z,71.06
2022-09-22T12:43:30.540Z,72.22
2022-09-22T12:44:30.470Z,72.31
2022-09-22T12:45:33.019Z,72.31
2022-09-22T12:46:30.329Z,70.49
2022-09-22T12:47:30.259Z,68.95
2022-09-22T12:48:30.398Z,68.57
2022-09-22T12:49:30.116Z,70.07
2022-09-22T12:50:30.048Z,67.32
2022-09-22T12:51:29.976Z,66.33
2022-09-22T12:52:29.930Z,64.47
2022-09-22T12:53:29.855Z,63.40
2022-09-22T12:54:29.769Z,60.31
2022-09-22T12:55:29.695Z,59.51
2022-09-22T12:56:29.629Z,59.89
2022-09-22T12:57:29.565Z,59.89
2022-09-22T12:58:29.490Z,59.51
2022-09-22T12:59:29.624Z,59.31
2022-09-22T13:00:32.810Z,58.58
2022-09-22T13:01:29.395Z,60.32
2022-09-22T13:02:29.222Z,62.28
2022-09-22T13:03:29.156Z,62.51